TAP35X EDDF-LPPT
Flight info
| Callsign | TAP35X |
|---|---|
| Flight time | N/A |
| Altitude | 33000 |
| Route | SOBRA1F SOBRA Y180 DIK UN857 TOLVU DCT RAPOR DCT GIMER DCT ESTOC UT300 PON UN872 ERIGA UZ218 FUJTI DCT ATLEN DCT ABUPI DCT XAMAX |
| Aircraft | A321/M-SDE3FGHIRWY/LB1 |
Departure
| Time | 2026-05-07 11:01 |
|---|---|
| Airport | Frankfurt Main Airport (EDDF) |
Arrival
| Time | N/A |
|---|---|
| Airport | Lisbon Humberto Delgado Airport (LPPT) |
| Time | Latitude | Longitude | Altitude | Speed | Heading |
|---|---|---|---|---|---|
| 2026-05-07 10:25 | 50.04468 | 8.56484 | 356 ft | 0 kts | 159° |
| 2026-05-07 10:48 | 50.04489 | 8.56471 | 363 ft | 4 kts | 160° |
| 2026-05-07 10:48 | 50.04515 | 8.56459 | 360 ft | 4 kts | 174° |
| 2026-05-07 10:48 | 50.04535 | 8.56464 | 362 ft | 3 kts | 242° |
| 2026-05-07 10:48 | 50.04534 | 8.56455 | 360 ft | 4 kts | 249° |
| 2026-05-07 10:49 | 50.04524 | 8.56415 | 356 ft | 4 kts | 249° |
| 2026-05-07 10:49 | 50.04518 | 8.56387 | 356 ft | 0 kts | 249° |
| 2026-05-07 10:51 | 50.04514 | 8.56372 | 358 ft | 3 kts | 249° |
| 2026-05-07 10:52 | 50.04497 | 8.56300 | 360 ft | 11 kts | 249° |
| 2026-05-07 10:52 | 50.04465 | 8.56168 | 362 ft | 13 kts | 249° |
| 2026-05-07 10:52 | 50.04433 | 8.56046 | 358 ft | 11 kts | 235° |
| 2026-05-07 10:52 | 50.04367 | 8.56041 | 362 ft | 10 kts | 159° |
| 2026-05-07 10:53 | 50.04295 | 8.56076 | 355 ft | 11 kts | 180° |
| 2026-05-07 10:53 | 50.04248 | 8.55978 | 361 ft | 15 kts | 250° |
| 2026-05-07 10:53 | 50.04204 | 8.55792 | 360 ft | 20 kts | 249° |
| 2026-05-07 10:53 | 50.04154 | 8.55582 | 351 ft | 21 kts | 250° |
| 2026-05-07 10:54 | 50.04105 | 8.55373 | 357 ft | 20 kts | 250° |
| 2026-05-07 10:54 | 50.04059 | 8.55185 | 356 ft | 14 kts | 250° |
| 2026-05-07 10:54 | 50.04039 | 8.55101 | 360 ft | 3 kts | 249° |
| 2026-05-07 10:54 | 50.04035 | 8.55086 | 359 ft | 0 kts | 249° |
| 2026-05-07 10:55 | 50.04035 | 8.55085 | 359 ft | 0 kts | 249° |
| 2026-05-07 10:57 | 50.04033 | 8.55078 | 360 ft | 3 kts | 249° |
| 2026-05-07 10:57 | 50.04019 | 8.55019 | 358 ft | 10 kts | 250° |
| 2026-05-07 10:58 | 50.03985 | 8.54873 | 353 ft | 19 kts | 249° |
| 2026-05-07 10:58 | 50.03929 | 8.54638 | 352 ft | 25 kts | 250° |
| 2026-05-07 10:58 | 50.03865 | 8.54380 | 355 ft | 26 kts | 245° |
| 2026-05-07 10:58 | 50.03781 | 8.54142 | 351 ft | 25 kts | 249° |
| 2026-05-07 10:59 | 50.03721 | 8.53891 | 352 ft | 25 kts | 249° |
| 2026-05-07 10:59 | 50.03660 | 8.53642 | 349 ft | 24 kts | 249° |
| 2026-05-07 10:59 | 50.03600 | 8.53397 | 336 ft | 24 kts | 250° |
| 2026-05-07 10:59 | 50.03542 | 8.53157 | 335 ft | 24 kts | 249° |
| 2026-05-07 11:00 | 50.03484 | 8.52916 | 335 ft | 24 kts | 248° |
| 2026-05-07 11:00 | 50.03425 | 8.52694 | 334 ft | 15 kts | 249° |
| 2026-05-07 11:00 | 50.03360 | 8.52593 | 335 ft | 15 kts | 184° |
| 2026-05-07 11:00 | 50.03175 | 8.52595 | 335 ft | 52 kts | 180° |
| 2026-05-07 11:01 | 50.02580 | 8.52602 | 334 ft | 116 kts | 180° |
| 2026-05-07 11:01 | 50.01590 | 8.52612 | 334 ft | 165 kts | 179° |
| 2026-05-07 11:01 | 50.00359 | 8.52626 | 693 ft | 178 kts | 181° |
| 2026-05-07 11:01 | 49.99096 | 8.52678 | 1288 ft | 185 kts | 179° |
| 2026-05-07 11:02 | 49.97767 | 8.52760 | 1700 ft | 195 kts | 180° |
| 2026-05-07 11:02 | 49.96374 | 8.52862 | 2035 ft | 206 kts | 179° |
| 2026-05-07 11:02 | 49.94924 | 8.52976 | 2399 ft | 215 kts | 179° |
| 2026-05-07 11:02 | 49.93442 | 8.53077 | 3024 ft | 211 kts | 178° |
| 2026-05-07 11:03 | 49.91961 | 8.53198 | 3482 ft | 217 kts | 178° |
| 2026-05-07 11:03 | 49.90409 | 8.53321 | 3767 ft | 232 kts | 179° |
| 2026-05-07 11:03 | 49.88765 | 8.53421 | 4267 ft | 238 kts | 179° |
| 2026-05-07 11:03 | 49.87094 | 8.53400 | 4858 ft | 239 kts | 193° |
| 2026-05-07 11:04 | 49.85486 | 8.52556 | 5208 ft | 254 kts | 203° |
| 2026-05-07 11:04 | 49.83790 | 8.51559 | 5718 ft | 265 kts | 202° |
| 2026-05-07 11:04 | 49.82035 | 8.50553 | 6324 ft | 275 kts | 202° |
| 2026-05-07 11:04 | 49.80245 | 8.49528 | 6942 ft | 280 kts | 202° |
| 2026-05-07 11:05 | 49.78431 | 8.48430 | 7681 ft | 280 kts | 210° |
| 2026-05-07 11:05 | 49.76962 | 8.46527 | 8368 ft | 277 kts | 236° |
| 2026-05-07 11:05 | 49.76137 | 8.43867 | 9090 ft | 275 kts | 258° |
| 2026-05-07 11:05 | 49.76044 | 8.40932 | 9792 ft | 276 kts | 280° |
| 2026-05-07 11:06 | 49.76497 | 8.38046 | 10473 ft | 276 kts | 284° |
| 2026-05-07 11:06 | 49.76966 | 8.35134 | 10993 ft | 285 kts | 284° |
| 2026-05-07 11:06 | 49.77445 | 8.32063 | 11246 ft | 302 kts | 283° |
| 2026-05-07 11:06 | 49.77931 | 8.28853 | 11449 ft | 320 kts | 284° |
| 2026-05-07 11:07 | 49.78471 | 8.25412 | 11609 ft | 336 kts | 284° |
| 2026-05-07 11:07 | 49.79046 | 8.21904 | 12247 ft | 338 kts | 285° |
| 2026-05-07 11:07 | 49.79636 | 8.18343 | 12754 ft | 343 kts | 284° |
| 2026-05-07 11:07 | 49.80219 | 8.14742 | 13322 ft | 347 kts | 284° |
| 2026-05-07 11:08 | 49.80805 | 8.11104 | 13872 ft | 350 kts | 285° |
| 2026-05-07 11:08 | 49.81392 | 8.07436 | 14386 ft | 352 kts | 285° |
| 2026-05-07 11:08 | 49.81983 | 8.03737 | 14878 ft | 356 kts | 284° |
| 2026-05-07 11:08 | 49.82574 | 8.00001 | 15385 ft | 358 kts | 284° |
| 2026-05-07 11:09 | 49.83157 | 7.96294 | 15903 ft | 360 kts | 284° |
| 2026-05-07 11:09 | 49.83748 | 7.92520 | 16391 ft | 362 kts | 284° |
| 2026-05-07 11:09 | 49.84342 | 7.88717 | 16891 ft | 364 kts | 284° |
| 2026-05-07 11:09 | 49.84939 | 7.84893 | 17372 ft | 366 kts | 284° |
| 2026-05-07 11:10 | 49.85539 | 7.81045 | 17848 ft | 369 kts | 284° |
| 2026-05-07 11:10 | 49.86143 | 7.77165 | 18274 ft | 372 kts | 284° |
| 2026-05-07 11:10 | 49.86755 | 7.73264 | 18676 ft | 374 kts | 284° |
| 2026-05-07 11:10 | 49.87376 | 7.69334 | 19098 ft | 375 kts | 284° |
| 2026-05-07 11:11 | 49.87987 | 7.65447 | 19919 ft | 368 kts | 284° |
| 2026-05-07 11:11 | 49.88580 | 7.61650 | 20531 ft | 367 kts | 284° |
| 2026-05-07 11:11 | 49.89178 | 7.57790 | 21009 ft | 370 kts | 283° |
| 2026-05-07 11:11 | 49.89773 | 7.53906 | 21495 ft | 371 kts | 283° |
| 2026-05-07 11:12 | 49.90366 | 7.50001 | 21934 ft | 374 kts | 283° |
| 2026-05-07 11:12 | 49.90963 | 7.46057 | 22318 ft | 377 kts | 283° |
| 2026-05-07 11:12 | 49.91566 | 7.42090 | 22704 ft | 379 kts | 283° |
| 2026-05-07 11:12 | 49.92173 | 7.38108 | 23108 ft | 381 kts | 283° |
| 2026-05-07 11:13 | 49.92772 | 7.34177 | 23937 ft | 368 kts | 283° |
| 2026-05-07 11:13 | 49.93356 | 7.30332 | 24451 ft | 365 kts | 283° |
| 2026-05-07 11:13 | 49.93939 | 7.26500 | 24827 ft | 365 kts | 283° |
| 2026-05-07 11:13 | 49.94517 | 7.22702 | 25130 ft | 368 kts | 283° |
| 2026-05-07 11:14 | 49.95107 | 7.18801 | 25257 ft | 375 kts | 283° |
| 2026-05-07 11:14 | 49.95705 | 7.14827 | 25379 ft | 381 kts | 283° |
| 2026-05-07 11:14 | 49.96312 | 7.10791 | 25507 ft | 387 kts | 283° |
| 2026-05-07 11:14 | 49.96926 | 7.06687 | 25630 ft | 393 kts | 283° |
| 2026-05-07 11:15 | 49.97544 | 7.02517 | 25752 ft | 399 kts | 283° |
| 2026-05-07 11:15 | 49.98169 | 6.98278 | 25871 ft | 406 kts | 283° |
| 2026-05-07 11:15 | 49.98802 | 6.93974 | 26000 ft | 412 kts | 282° |
| 2026-05-07 11:15 | 49.99209 | 6.89549 | 26168 ft | 416 kts | 273° |
| 2026-05-07 11:16 | 49.99170 | 6.85090 | 26389 ft | 419 kts | 267° |
| 2026-05-07 11:16 | 49.99023 | 6.80547 | 26596 ft | 423 kts | 266° |
| 2026-05-07 11:16 | 49.98478 | 6.76059 | 26838 ft | 425 kts | 251° |
| 2026-05-07 11:16 | 49.97384 | 6.71775 | 27103 ft | 428 kts | 248° |
| 2026-05-07 11:17 | 49.96250 | 6.67498 | 27369 ft | 429 kts | 248° |
| 2026-05-07 11:17 | 49.95100 | 6.63206 | 27641 ft | 431 kts | 248° |
| 2026-05-07 11:17 | 49.93941 | 6.58906 | 27908 ft | 433 kts | 248° |
| 2026-05-07 11:17 | 49.92803 | 6.54570 | 28158 ft | 434 kts | 249° |
| 2026-05-07 11:18 | 49.91724 | 6.50247 | 28414 ft | 436 kts | 250° |
| 2026-05-07 11:18 | 49.90658 | 6.45833 | 28683 ft | 438 kts | 250° |
| 2026-05-07 11:18 | 49.89599 | 6.41402 | 28933 ft | 439 kts | 250° |
| 2026-05-07 11:18 | 49.88529 | 6.36959 | 29179 ft | 441 kts | 250° |
| 2026-05-07 11:19 | 49.87442 | 6.32506 | 29447 ft | 442 kts | 250° |
| 2026-05-07 11:19 | 49.86343 | 6.28056 | 29696 ft | 443 kts | 250° |
| 2026-05-07 11:19 | 49.85236 | 6.23598 | 29916 ft | 444 kts | 249° |
| 2026-05-07 11:19 | 49.84122 | 6.19132 | 30099 ft | 445 kts | 249° |
| 2026-05-07 11:20 | 49.83018 | 6.14710 | 30262 ft | 447 kts | 250° |
| 2026-05-07 11:20 | 49.81898 | 6.10229 | 30449 ft | 447 kts | 249° |
| 2026-05-07 11:20 | 49.80776 | 6.05740 | 30676 ft | 446 kts | 250° |
| 2026-05-07 11:20 | 49.79655 | 6.01267 | 30893 ft | 446 kts | 249° |
| 2026-05-07 11:21 | 49.78529 | 5.96793 | 31111 ft | 446 kts | 249° |
| 2026-05-07 11:21 | 49.77402 | 5.92332 | 31348 ft | 445 kts | 249° |
| 2026-05-07 11:21 | 49.76274 | 5.87868 | 31571 ft | 445 kts | 249° |
| 2026-05-07 11:21 | 49.75152 | 5.83421 | 31830 ft | 443 kts | 249° |
| 2026-05-07 11:22 | 49.74032 | 5.78990 | 32080 ft | 442 kts | 249° |
| 2026-05-07 11:22 | 49.72927 | 5.74624 | 32314 ft | 442 kts | 249° |
| 2026-05-07 11:22 | 49.71806 | 5.70210 | 32540 ft | 441 kts | 249° |
| 2026-05-07 11:22 | 49.70686 | 5.65806 | 32761 ft | 441 kts | 249° |
| 2026-05-07 11:23 | 49.69562 | 5.61399 | 32979 ft | 441 kts | 249° |
| 2026-05-07 11:23 | 49.68442 | 5.57016 | 33057 ft | 435 kts | 249° |
| 2026-05-07 11:23 | 49.66232 | 5.48404 | 33055 ft | 429 kts | 249° |
| 2026-05-07 11:24 | 49.64040 | 5.39908 | 33068 ft | 429 kts | 249° |
| 2026-05-07 11:24 | 49.61829 | 5.31391 | 33048 ft | 427 kts | 249° |